EZY981 EGMC-EGJJ
Flight info
| Callsign | EZY981 |
|---|---|
| Flight time | 0h 49m |
| Altitude | 20000 |
| Route | DET DCT ETVAX DCT ROXOG DCT ORIST DCT BEVAV |
| Aircraft | A320/M-SDE2E3FGHIJ1RWXYZ/LB1 |
Departure
| Time | 2026-04-23 18:29 |
|---|---|
| Airport | London Southend Airport (EGMC) |
Arrival
| Time | 2026-04-23 19:18 |
|---|---|
| Airport | Jersey Airport (EGJJ) |
| Time | Latitude | Longitude | Altitude | Speed | Heading |
|---|---|---|---|---|---|
| 2026-04-23 17:32 | 51.56965 | 0.70286 | 54 ft | 0 kts | 93° |
| 2026-04-23 18:14 | 51.56965 | 0.70285 | 54 ft | 1 kts | 93° |
| 2026-04-23 18:14 | 51.56966 | 0.70263 | 54 ft | 3 kts | 100° |
| 2026-04-23 18:14 | 51.56972 | 0.70232 | 51 ft | 3 kts | 121° |
| 2026-04-23 18:15 | 51.56983 | 0.70210 | 52 ft | 3 kts | 159° |
| 2026-04-23 18:15 | 51.56994 | 0.70206 | 52 ft | 1 kts | 188° |
| 2026-04-23 18:15 | 51.56995 | 0.70206 | 53 ft | 0 kts | 188° |
| 2026-04-23 18:19 | 51.56989 | 0.70204 | 52 ft | 2 kts | 188° |
| 2026-04-23 18:19 | 51.56954 | 0.70196 | 54 ft | 7 kts | 188° |
| 2026-04-23 18:19 | 51.56903 | 0.70154 | 52 ft | 10 kts | 227° |
| 2026-04-23 18:20 | 51.56872 | 0.70057 | 54 ft | 9 kts | 269° |
| 2026-04-23 18:20 | 51.56880 | 0.69963 | 54 ft | 8 kts | 279° |
| 2026-04-23 18:20 | 51.56888 | 0.69878 | 54 ft | 7 kts | 279° |
| 2026-04-23 18:20 | 51.56896 | 0.69798 | 54 ft | 8 kts | 278° |
| 2026-04-23 18:21 | 51.56908 | 0.69684 | 54 ft | 12 kts | 279° |
| 2026-04-23 18:21 | 51.56919 | 0.69546 | 54 ft | 11 kts | 268° |
| 2026-04-23 18:21 | 51.56905 | 0.69413 | 54 ft | 13 kts | 261° |
| 2026-04-23 18:21 | 51.56886 | 0.69269 | 54 ft | 13 kts | 244° |
| 2026-04-23 18:22 | 51.56848 | 0.69182 | 54 ft | 1 kts | 233° |
| 2026-04-23 18:22 | 51.56846 | 0.69179 | 54 ft | 0 kts | 234° |
| 2026-04-23 18:22 | 51.56846 | 0.69178 | 54 ft | 1 kts | 234° |
| 2026-04-23 18:22 | 51.56836 | 0.69146 | 54 ft | 5 kts | 254° |
| 2026-04-23 18:23 | 51.56841 | 0.69102 | 53 ft | 7 kts | 300° |
| 2026-04-23 18:23 | 51.56889 | 0.68989 | 57 ft | 9 kts | 248° |
| 2026-04-23 18:24 | 51.56783 | 0.68755 | 55 ft | 18 kts | 234° |
| 2026-04-23 18:24 | 51.56703 | 0.68576 | 52 ft | 21 kts | 234° |
| 2026-04-23 18:24 | 51.56610 | 0.68372 | 50 ft | 22 kts | 234° |
| 2026-04-23 18:25 | 51.56528 | 0.68190 | 54 ft | 7 kts | 352° |
| 2026-04-23 18:25 | 51.56554 | 0.68244 | 54 ft | 0 kts | 52° |
| 2026-04-23 18:28 | 51.56579 | 0.68300 | 52 ft | 33 kts | 54° |
| 2026-04-23 18:28 | 51.56875 | 0.68957 | 58 ft | 108 kts | 54° |
| 2026-04-23 18:29 | 51.57421 | 0.70154 | 239 ft | 147 kts | 54° |
| 2026-04-23 18:29 | 51.57987 | 0.71508 | 1069 ft | 147 kts | 59° |
| 2026-04-23 18:29 | 51.58590 | 0.72927 | 1624 ft | 163 kts | 57° |
| 2026-04-23 18:29 | 51.58977 | 0.74730 | 1983 ft | 188 kts | 94° |
| 2026-04-23 18:30 | 51.58667 | 0.76095 | 2283 ft | 209 kts | 123° |
| 2026-04-23 18:30 | 51.57380 | 0.77474 | 2771 ft | 244 kts | 163° |
| 2026-04-23 18:30 | 51.55607 | 0.77285 | 3500 ft | 268 kts | 194° |
| 2026-04-23 18:30 | 51.53879 | 0.76090 | 4485 ft | 274 kts | 204° |
| 2026-04-23 18:31 | 51.52191 | 0.74616 | 5493 ft | 277 kts | 205° |
| 2026-04-23 18:31 | 51.50487 | 0.73136 | 6446 ft | 281 kts | 205° |
| 2026-04-23 18:31 | 51.48727 | 0.71720 | 7364 ft | 284 kts | 202° |
| 2026-04-23 18:31 | 51.46916 | 0.70386 | 8246 ft | 288 kts | 200° |
| 2026-04-23 18:32 | 51.45063 | 0.69110 | 9144 ft | 292 kts | 199° |
| 2026-04-23 18:32 | 51.43169 | 0.67856 | 10006 ft | 297 kts | 199° |
| 2026-04-23 18:32 | 51.41233 | 0.66609 | 10728 ft | 307 kts | 198° |
| 2026-04-23 18:32 | 51.39169 | 0.65305 | 11039 ft | 330 kts | 198° |
| 2026-04-23 18:33 | 51.36992 | 0.63934 | 11673 ft | 339 kts | 199° |
| 2026-04-23 18:33 | 51.34782 | 0.62533 | 12455 ft | 344 kts | 199° |
| 2026-04-23 18:33 | 51.32540 | 0.61109 | 13293 ft | 348 kts | 198° |
| 2026-04-23 18:33 | 51.30224 | 0.60038 | 14120 ft | 347 kts | 187° |
| 2026-04-23 18:34 | 51.27824 | 0.59731 | 14840 ft | 346 kts | 176° |
| 2026-04-23 18:34 | 51.25411 | 0.59753 | 15550 ft | 349 kts | 177° |
| 2026-04-23 18:34 | 51.22989 | 0.59775 | 16267 ft | 351 kts | 176° |
| 2026-04-23 18:34 | 51.20530 | 0.59794 | 16980 ft | 353 kts | 177° |
| 2026-04-23 18:35 | 51.18058 | 0.59809 | 17703 ft | 355 kts | 177° |
| 2026-04-23 18:35 | 51.15579 | 0.59818 | 18422 ft | 358 kts | 178° |
| 2026-04-23 18:35 | 51.13078 | 0.59825 | 19064 ft | 360 kts | 178° |
| 2026-04-23 18:35 | 51.10562 | 0.59833 | 19670 ft | 363 kts | 178° |
| 2026-04-23 18:36 | 51.08030 | 0.59842 | 20221 ft | 364 kts | 178° |
| 2026-04-23 18:36 | 51.05498 | 0.59852 | 20396 ft | 363 kts | 178° |
| 2026-04-23 18:36 | 51.03016 | 0.59863 | 20434 ft | 349 kts | 178° |
| 2026-04-23 18:36 | 51.00630 | 0.59659 | 20434 ft | 342 kts | 188° |
| 2026-04-23 18:37 | 50.98369 | 0.58491 | 20431 ft | 344 kts | 204° |
| 2026-04-23 18:37 | 50.96389 | 0.56344 | 20423 ft | 349 kts | 220° |
| 2026-04-23 18:37 | 50.94853 | 0.53344 | 20421 ft | 354 kts | 237° |
| 2026-04-23 18:37 | 50.93735 | 0.49850 | 20421 ft | 356 kts | 241° |
| 2026-04-23 18:38 | 50.92641 | 0.46333 | 20424 ft | 356 kts | 240° |
| 2026-04-23 18:38 | 50.91540 | 0.42816 | 20415 ft | 357 kts | 240° |
| 2026-04-23 18:38 | 50.90439 | 0.39311 | 20410 ft | 357 kts | 240° |
| 2026-04-23 18:38 | 50.89333 | 0.35793 | 20402 ft | 357 kts | 240° |
| 2026-04-23 18:39 | 50.88225 | 0.32278 | 20398 ft | 357 kts | 240° |
| 2026-04-23 18:39 | 50.87113 | 0.28762 | 20392 ft | 357 kts | 240° |
| 2026-04-23 18:39 | 50.86001 | 0.25242 | 20390 ft | 357 kts | 240° |
| 2026-04-23 18:39 | 50.84893 | 0.21724 | 20385 ft | 357 kts | 240° |
| 2026-04-23 18:40 | 50.83786 | 0.18206 | 20376 ft | 357 kts | 240° |
| 2026-04-23 18:40 | 50.82675 | 0.14688 | 20377 ft | 357 kts | 240° |
| 2026-04-23 18:40 | 50.81561 | 0.11175 | 20378 ft | 357 kts | 240° |
| 2026-04-23 18:40 | 50.80443 | 0.07659 | 20378 ft | 357 kts | 240° |
| 2026-04-23 18:41 | 50.79328 | 0.04154 | 20377 ft | 357 kts | 240° |
| 2026-04-23 18:41 | 50.78226 | 0.00692 | 20376 ft | 357 kts | 240° |
| 2026-04-23 18:41 | 50.77111 | -0.02802 | 20374 ft | 357 kts | 240° |
| 2026-04-23 18:41 | 50.75987 | -0.06313 | 20364 ft | 357 kts | 240° |
| 2026-04-23 18:42 | 50.74870 | -0.09803 | 20356 ft | 358 kts | 240° |
| 2026-04-23 18:42 | 50.73743 | -0.13329 | 20355 ft | 358 kts | 240° |
| 2026-04-23 18:42 | 50.72619 | -0.16838 | 20355 ft | 358 kts | 240° |
| 2026-04-23 18:42 | 50.71493 | -0.20350 | 20357 ft | 359 kts | 240° |
| 2026-04-23 18:43 | 50.70369 | -0.23857 | 20358 ft | 359 kts | 240° |
| 2026-04-23 18:43 | 50.69241 | -0.27368 | 20361 ft | 359 kts | 240° |
| 2026-04-23 18:43 | 50.68112 | -0.30873 | 20366 ft | 359 kts | 240° |
| 2026-04-23 18:43 | 50.66978 | -0.34379 | 20367 ft | 359 kts | 240° |
| 2026-04-23 18:44 | 50.65842 | -0.37878 | 20368 ft | 359 kts | 240° |
| 2026-04-23 18:44 | 50.64704 | -0.41382 | 20375 ft | 359 kts | 240° |
| 2026-04-23 18:44 | 50.63569 | -0.44878 | 20367 ft | 359 kts | 239° |
| 2026-04-23 18:44 | 50.62430 | -0.48383 | 20371 ft | 359 kts | 239° |
| 2026-04-23 18:45 | 50.61291 | -0.51886 | 20369 ft | 359 kts | 240° |
| 2026-04-23 18:45 | 50.60152 | -0.55386 | 20368 ft | 359 kts | 239° |
| 2026-04-23 18:45 | 50.59012 | -0.58884 | 20356 ft | 360 kts | 239° |
| 2026-04-23 18:45 | 50.57870 | -0.62385 | 20359 ft | 360 kts | 239° |
| 2026-04-23 18:46 | 50.56725 | -0.65888 | 20365 ft | 360 kts | 239° |
| 2026-04-23 18:46 | 50.55580 | -0.69385 | 20362 ft | 360 kts | 239° |
| 2026-04-23 18:46 | 50.54433 | -0.72879 | 20362 ft | 360 kts | 239° |
| 2026-04-23 18:46 | 50.53285 | -0.76374 | 20368 ft | 360 kts | 239° |
| 2026-04-23 18:47 | 50.52137 | -0.79864 | 20372 ft | 360 kts | 239° |
| 2026-04-23 18:47 | 50.50993 | -0.83340 | 20367 ft | 360 kts | 239° |
| 2026-04-23 18:47 | 50.49844 | -0.86831 | 20361 ft | 360 kts | 239° |
| 2026-04-23 18:47 | 50.48695 | -0.90313 | 20362 ft | 360 kts | 239° |
| 2026-04-23 18:48 | 50.47540 | -0.93805 | 20361 ft | 360 kts | 240° |
| 2026-04-23 18:48 | 50.46386 | -0.97287 | 20348 ft | 360 kts | 240° |
| 2026-04-23 18:48 | 50.45227 | -1.00784 | 20334 ft | 361 kts | 240° |
| 2026-04-23 18:48 | 50.44068 | -1.04272 | 20333 ft | 361 kts | 240° |
| 2026-04-23 18:49 | 50.42905 | -1.07772 | 20335 ft | 361 kts | 240° |
| 2026-04-23 18:49 | 50.41743 | -1.11265 | 20330 ft | 361 kts | 240° |
| 2026-04-23 18:49 | 50.40578 | -1.14755 | 20321 ft | 362 kts | 240° |
| 2026-04-23 18:49 | 50.39408 | -1.18251 | 20319 ft | 362 kts | 241° |
| 2026-04-23 18:50 | 50.38633 | -1.20563 | 20323 ft | 362 kts | 240° |
| 2026-04-23 18:50 | 50.37064 | -1.25238 | 20316 ft | 363 kts | 240° |
| 2026-04-23 18:50 | 50.35890 | -1.28745 | 20318 ft | 363 kts | 240° |
| 2026-04-23 18:50 | 50.34716 | -1.32241 | 20316 ft | 363 kts | 240° |
| 2026-04-23 18:51 | 50.33539 | -1.35737 | 20318 ft | 363 kts | 240° |
| 2026-04-23 18:51 | 50.32357 | -1.39241 | 20311 ft | 364 kts | 241° |
| 2026-04-23 18:51 | 50.31173 | -1.42745 | 20302 ft | 365 kts | 242° |
| 2026-04-23 18:51 | 50.29991 | -1.46246 | 20308 ft | 365 kts | 242° |
| 2026-04-23 18:52 | 50.28811 | -1.49741 | 20307 ft | 365 kts | 242° |
| 2026-04-23 18:52 | 50.27605 | -1.53180 | 20303 ft | 366 kts | 237° |
| 2026-04-23 18:52 | 50.26023 | -1.56353 | 20303 ft | 365 kts | 225° |
| 2026-04-23 18:52 | 50.24137 | -1.58903 | 20314 ft | 363 kts | 213° |
| 2026-04-23 18:53 | 50.22022 | -1.61143 | 20308 ft | 363 kts | 212° |
| 2026-04-23 18:53 | 50.19931 | -1.63357 | 20306 ft | 363 kts | 212° |
| 2026-04-23 18:53 | 50.17841 | -1.65579 | 20310 ft | 363 kts | 213° |
| 2026-04-23 18:53 | 50.15755 | -1.67803 | 20307 ft | 364 kts | 213° |
| 2026-04-23 18:54 | 50.13667 | -1.70026 | 20296 ft | 365 kts | 213° |
| 2026-04-23 18:54 | 50.11595 | -1.72227 | 20295 ft | 365 kts | 213° |
| 2026-04-23 18:54 | 50.09465 | -1.74489 | 20303 ft | 365 kts | 213° |
| 2026-04-23 18:54 | 50.07368 | -1.76709 | 20303 ft | 365 kts | 213° |
| 2026-04-23 18:55 | 50.05261 | -1.78938 | 20298 ft | 366 kts | 213° |
| 2026-04-23 18:55 | 50.03150 | -1.81137 | 20296 ft | 365 kts | 210° |
| 2026-04-23 18:55 | 50.00894 | -1.82810 | 20293 ft | 364 kts | 198° |
| 2026-04-23 18:55 | 49.98436 | -1.83719 | 20291 ft | 365 kts | 185° |
| 2026-04-23 18:56 | 49.96721 | -1.83867 | 20298 ft | 366 kts | 176° |
| 2026-04-23 18:56 | 49.93373 | -1.83372 | 20292 ft | 367 kts | 172° |
| 2026-04-23 18:56 | 49.90835 | -1.82932 | 20293 ft | 366 kts | 172° |
| 2026-04-23 18:56 | 49.88313 | -1.82510 | 20290 ft | 364 kts | 172° |
| 2026-04-23 18:57 | 49.85781 | -1.82098 | 20286 ft | 367 kts | 173° |
| 2026-04-23 18:57 | 49.83238 | -1.81686 | 20283 ft | 368 kts | 172° |
| 2026-04-23 18:57 | 49.80682 | -1.81264 | 20284 ft | 371 kts | 172° |
| 2026-04-23 18:57 | 49.78127 | -1.80835 | 20282 ft | 368 kts | 172° |
| 2026-04-23 18:58 | 49.75589 | -1.80408 | 20280 ft | 366 kts | 172° |
| 2026-04-23 18:58 | 49.73073 | -1.79986 | 20283 ft | 362 kts | 172° |
| 2026-04-23 18:58 | 49.70574 | -1.79564 | 20277 ft | 362 kts | 172° |
| 2026-04-23 18:58 | 49.68062 | -1.79138 | 20276 ft | 362 kts | 172° |
| 2026-04-23 18:59 | 49.65566 | -1.78720 | 20275 ft | 364 kts | 172° |
| 2026-04-23 18:59 | 49.63040 | -1.78301 | 20276 ft | 365 kts | 173° |
| 2026-04-23 18:59 | 49.60525 | -1.77887 | 20274 ft | 364 kts | 172° |
| 2026-04-23 18:59 | 49.58009 | -1.77472 | 20274 ft | 363 kts | 173° |
| 2026-04-23 19:00 | 49.56397 | -1.77206 | 20273 ft | 361 kts | 173° |
| 2026-04-23 19:00 | 49.53047 | -1.76658 | 20270 ft | 362 kts | 173° |
| 2026-04-23 19:00 | 49.50543 | -1.76245 | 20268 ft | 363 kts | 173° |
| 2026-04-23 19:00 | 49.48029 | -1.75825 | 20257 ft | 364 kts | 173° |
| 2026-04-23 19:01 | 49.45506 | -1.75403 | 20253 ft | 365 kts | 173° |
| 2026-04-23 19:01 | 49.42985 | -1.74985 | 20255 ft | 365 kts | 173° |
| 2026-04-23 19:01 | 49.40458 | -1.74572 | 20254 ft | 365 kts | 173° |
| 2026-04-23 19:01 | 49.37936 | -1.74162 | 20265 ft | 367 kts | 173° |
| 2026-04-23 19:02 | 49.36228 | -1.73884 | 20266 ft | 381 kts | 173° |
| 2026-04-23 19:02 | 49.32718 | -1.73313 | 19962 ft | 377 kts | 173° |
| 2026-04-23 19:02 | 49.30116 | -1.72888 | 19516 ft | 375 kts | 173° |
| 2026-04-23 19:02 | 49.27542 | -1.72464 | 19192 ft | 369 kts | 173° |
| 2026-04-23 19:03 | 49.25015 | -1.72048 | 18768 ft | 364 kts | 173° |
| 2026-04-23 19:03 | 49.22537 | -1.71640 | 18035 ft | 357 kts | 173° |
| 2026-04-23 19:03 | 49.20085 | -1.71238 | 17249 ft | 351 kts | 172° |
| 2026-04-23 19:03 | 49.17675 | -1.70842 | 16516 ft | 345 kts | 172° |
| 2026-04-23 19:04 | 49.15313 | -1.70454 | 15830 ft | 338 kts | 171° |
| 2026-04-23 19:04 | 49.12996 | -1.70149 | 15235 ft | 331 kts | 179° |
| 2026-04-23 19:04 | 49.10796 | -1.70832 | 14947 ft | 320 kts | 200° |
| 2026-04-23 19:04 | 49.08924 | -1.72658 | 14586 ft | 323 kts | 223° |
| 2026-04-23 19:05 | 49.07630 | -1.75466 | 14193 ft | 328 kts | 245° |
| 2026-04-23 19:05 | 49.07135 | -1.78846 | 13767 ft | 330 kts | 269° |
| 2026-04-23 19:05 | 49.07254 | -1.82343 | 13351 ft | 330 kts | 274° |
| 2026-04-23 19:05 | 49.07408 | -1.85831 | 12945 ft | 329 kts | 274° |
| 2026-04-23 19:06 | 49.07560 | -1.89317 | 12527 ft | 329 kts | 274° |
| 2026-04-23 19:06 | 49.07707 | -1.92793 | 12106 ft | 329 kts | 273° |
| 2026-04-23 19:06 | 49.07851 | -1.96266 | 11680 ft | 328 kts | 273° |
| 2026-04-23 19:06 | 49.07992 | -1.99746 | 11240 ft | 329 kts | 273° |
| 2026-04-23 19:07 | 49.08130 | -2.03190 | 10809 ft | 329 kts | 272° |
| 2026-04-23 19:07 | 49.08271 | -2.06727 | 10344 ft | 331 kts | 272° |
| 2026-04-23 19:07 | 49.08410 | -2.10237 | 9875 ft | 331 kts | 272° |
| 2026-04-23 19:07 | 49.08547 | -2.13687 | 9722 ft | 320 kts | 272° |
| 2026-04-23 19:08 | 49.08677 | -2.17031 | 9471 ft | 313 kts | 272° |
| 2026-04-23 19:08 | 49.08806 | -2.20328 | 9088 ft | 311 kts | 272° |
| 2026-04-23 19:08 | 49.08934 | -2.23600 | 8705 ft | 309 kts | 272° |
| 2026-04-23 19:08 | 49.09059 | -2.26883 | 8274 ft | 309 kts | 272° |
| 2026-04-23 19:09 | 49.09184 | -2.30135 | 7878 ft | 307 kts | 272° |
| 2026-04-23 19:09 | 49.09306 | -2.33346 | 7444 ft | 308 kts | 272° |
| 2026-04-23 19:09 | 49.09428 | -2.36607 | 6899 ft | 311 kts | 272° |
| 2026-04-23 19:09 | 49.09552 | -2.39916 | 6063 ft | 313 kts | 271° |
| 2026-04-23 19:10 | 49.09674 | -2.43220 | 5291 ft | 310 kts | 271° |
| 2026-04-23 19:10 | 49.09793 | -2.46434 | 4863 ft | 295 kts | 271° |
| 2026-04-23 19:10 | 49.09907 | -2.49506 | 4611 ft | 286 kts | 271° |
| 2026-04-23 19:10 | 49.10018 | -2.52497 | 4357 ft | 279 kts | 270° |
| 2026-04-23 19:11 | 49.10379 | -2.55341 | 4095 ft | 270 kts | 296° |
| 2026-04-23 19:11 | 49.11606 | -2.57329 | 3845 ft | 254 kts | 336° |
| 2026-04-23 19:11 | 49.13253 | -2.57763 | 3589 ft | 236 kts | 18° |
| 2026-04-23 19:11 | 49.14656 | -2.56711 | 3366 ft | 219 kts | 45° |
| 2026-04-23 19:12 | 49.15413 | -2.55715 | 3199 ft | 215 kts | 50° |
| 2026-04-23 19:12 | 49.16834 | -2.53632 | 2922 ft | 209 kts | 51° |
| 2026-04-23 19:12 | 49.17824 | -2.52077 | 2714 ft | 198 kts | 64° |
| 2026-04-23 19:12 | 49.18205 | -2.50167 | 2515 ft | 185 kts | 86° |
| 2026-04-23 19:13 | 49.18367 | -2.48229 | 2317 ft | 182 kts | 86° |
| 2026-04-23 19:13 | 49.18527 | -2.46319 | 2122 ft | 180 kts | 86° |
| 2026-04-23 19:13 | 49.18686 | -2.44461 | 2040 ft | 171 kts | 86° |
| 2026-04-23 19:13 | 49.18834 | -2.42745 | 2010 ft | 154 kts | 86° |
| 2026-04-23 19:14 | 49.18966 | -2.41215 | 2000 ft | 137 kts | 87° |
| 2026-04-23 19:14 | 49.19085 | -2.39826 | 2003 ft | 129 kts | 88° |
| 2026-04-23 19:14 | 49.19198 | -2.38487 | 2005 ft | 126 kts | 88° |
| 2026-04-23 19:14 | 49.19272 | -2.37610 | 2006 ft | 126 kts | 88° |
| 2026-04-23 19:15 | 49.19385 | -2.36281 | 2005 ft | 126 kts | 88° |
| 2026-04-23 19:15 | 49.19497 | -2.34959 | 1998 ft | 125 kts | 87° |
| 2026-04-23 19:15 | 49.19609 | -2.33643 | 1910 ft | 125 kts | 87° |
| 2026-04-23 19:15 | 49.19720 | -2.32334 | 1787 ft | 123 kts | 87° |
| 2026-04-23 19:16 | 49.19866 | -2.30611 | 1586 ft | 122 kts | 87° |
| 2026-04-23 19:16 | 49.19939 | -2.29741 | 1479 ft | 122 kts | 86° |
| 2026-04-23 19:16 | 49.20048 | -2.28450 | 1312 ft | 122 kts | 86° |
| 2026-04-23 19:17 | 49.20264 | -2.25879 | 989 ft | 122 kts | 84° |
| 2026-04-23 19:17 | 49.20372 | -2.24588 | 823 ft | 123 kts | 82° |
| 2026-04-23 19:17 | 49.20481 | -2.23295 | 681 ft | 123 kts | 81° |
| 2026-04-23 19:17 | 49.20590 | -2.22009 | 479 ft | 122 kts | 81° |
| 2026-04-23 19:18 | 49.20698 | -2.20745 | 325 ft | 124 kts | 81° |
| 2026-04-23 19:18 | 49.20802 | -2.19554 | 286 ft | 94 kts | 82° |
| 2026-04-23 19:18 | 49.20844 | -2.19004 | 284 ft | 18 kts | 82° |
| 2026-04-23 19:18 | 49.20861 | -2.18790 | 283 ft | 23 kts | 83° |
| 2026-04-23 19:19 | 49.20837 | -2.18383 | 283 ft | 17 kts | 164° |
| 2026-04-23 19:19 | 49.20816 | -2.18380 | 284 ft | 4 kts | 180° |
| 2026-04-23 19:20 | 49.20753 | -2.18440 | 284 ft | 1 kts | 220° |
| 2026-04-23 19:20 | 49.20744 | -2.18456 | 284 ft | 4 kts | 234° |
| 2026-04-23 19:20 | 49.20732 | -2.18535 | 286 ft | 10 kts | 263° |
| 2026-04-23 19:20 | 49.20720 | -2.18666 | 286 ft | 14 kts | 263° |
| 2026-04-23 19:21 | 49.20707 | -2.18822 | 284 ft | 16 kts | 262° |
| 2026-04-23 19:21 | 49.20680 | -2.19194 | 284 ft | 15 kts | 275° |
| 2026-04-23 19:21 | 49.20706 | -2.19362 | 288 ft | 17 kts | 281° |
| 2026-04-23 19:22 | 49.20697 | -2.19537 | 284 ft | 13 kts | 260° |
| 2026-04-23 19:22 | 49.20665 | -2.19649 | 285 ft | 12 kts | 222° |
| 2026-04-23 19:22 | 49.20588 | -2.19759 | 284 ft | 4 kts | 180° |
| 2026-04-23 19:23 | 49.20573 | -2.19756 | 284 ft | 3 kts | 173° |
| 2026-04-23 19:23 | 49.20557 | -2.19753 | 284 ft | 2 kts | 174° |
| 2026-04-23 19:23 | 49.20555 | -2.19753 | 284 ft | 0 kts | 173° |